Avalon Express — WDD7919 — position and weather

sailwx.info

Track history (hours):
 
Tides and Currents Weather Stations Pressure Air Temp Water Temp Dewpoint Dewpoint Depression Visibility Wind Speed Wind Dir Waves Ship Positions

Avalon Express

Owner: RGWT INC, San Pedro, CA. More information available from US FCC via Universal Licensing System and Coast Guard Vessel Documentation Center.

Last reported at 2018-Jul-19 13:00 UTC. Time now 2018-Jul-19 13:08 UTC.
Position N 33°45' W 118°16'.

Length 37 m; draft 3 m.

Type: High speed craft. MMSI: 367192940.

Date/timePositionNaut miles runAvg speedWind from/ knotsBaromVisibWave heightAir tempDewpointWater temp
2018-Jul-19 13:00N 33°45' W 118°16'0 0.0
2018-Jul-19 12:30N 33°45' W 118°16'0 0.0
2018-Jul-19 02:59N 33°45' W 118°16'0 0.2
2018-Jul-19 02:30N 33°45' W 118°16'0 0.0
2018-Jul-19 02:00N 33°45' W 118°16'2 3.2
2018-Jul-19 01:31N 33°43' W 118°16'1122.3
2018-Jul-19 01:01N 33°32' W 118°16'1223.5
2018-Jul-19 00:30N 33°21' W 118°19'1 1.6
2018-Jul-19 00:01N 33°22' W 118°19'1016.6
2018-Jul-18 23:24N 33°27' W 118°30'1 2.3
2018-Jul-18 23:01N 33°27' W 118°29'1324.7
2018-Jul-18 22:30N 33°37' W 118°20'815.2
2018-Jul-18 22:00N 33°44' W 118°17'1 1.3
2018-Jul-18 21:30N 33°45' W 118°16'0 0.0
2018-Jul-18 21:00N 33°45' W 118°16'3 6.6
2018-Jul-18 20:31N 33°42' W 118°15'1325.1
2018-Jul-18 20:00N 33°30' W 118°17'918.1
2018-Jul-18 19:30N 33°21' W 118°19'0 0.2
2018-Jul-18 19:00N 33°21' W 118°19'1122.4
2018-Jul-18 18:30N 33°32' W 118°17'1122.8
2018-Jul-18 18:00N 33°43' W 118°16'2 3.5
2018-Jul-18 17:30N 33°45' W 118°16'0 0.0
2018-Jul-18 17:00N 33°45' W 118°16'0 0.2
2018-Jul-18 16:30N 33°45' W 118°16'0 0.0
2018-Jul-18 16:00N 33°45' W 118°16'0 0.0
2018-Jul-18 15:30N 33°45' W 118°16'0 0.0
2018-Jul-18 15:00N 33°45' W 118°16'0 0.0
2018-Jul-18 14:30N 33°45' W 118°16'0 0.0
2018-Jul-18 13:30N 33°45' W 118°16'0 0.2
2018-Jul-18 13:00N 33°45' W 118°16'0 0.2
2018-Jul-18 12:30N 33°45' W 118°16'0 0.1
2018-Jul-18 12:00N 33°45' W 118°16'0 0.0
2018-Jul-18 02:52N 33°45' W 118°16'0 0.2
2018-Jul-18 02:30N 33°45' W 118°16'0 0.0
2018-Jul-18 02:00N 33°45' W 118°16'2 4.0
2018-Jul-18 01:30N 33°43' W 118°16'1121.8
2018-Jul-18 01:01N 33°32' W 118°17'1222.3
2018-Jul-18 00:29N 33°21' W 118°19'2 4.6
2018-Jul-18 00:00N 33°23' W 118°20'9 9.9
2018-Jul-17 23:06N 33°27' W 118°30'318.0
2018-Jul-17 22:57N 33°29' W 118°27'1125.2
2018-Jul-17 22:30N 33°37' W 118°19'714.6
2018-Jul-17 22:01N 33°44' W 118°17'1 1.2
2018-Jul-17 21:31N 33°45' W 118°16'0 0.0
2018-Jul-17 21:01N 33°45' W 118°16'2 5.0
2018-Jul-17 20:30N 33°43' W 118°15'1325.3
2018-Jul-17 20:00N 33°30' W 118°17'9 9.4
2018-Jul-17 19:02N 33°21' W 118°19'0 9.5
2018-Jul-17 19:00N 33°21' W 118°19'1224.4
2018-Jul-17 18:30N 33°33' W 118°17'1020.7
2018-Jul-17 18:01N 33°43' W 118°16'1 2.8
2018-Jul-17 17:30N 33°45' W 118°16'0 0.2
2018-Jul-17 17:01N 33°45' W 118°16'0 0.0
2018-Jul-17 16:31N 33°45' W 118°16'0 0.0
2018-Jul-17 16:00N 33°45' W 118°16'0 0.0
2018-Jul-17 15:30N 33°45' W 118°16'0 0.0
2018-Jul-17 15:00N 33°45' W 118°16'0 0.1
2018-Jul-17 14:31N 33°45' W 118°16'0 0.1
2018-Jul-17 14:00N 33°45' W 118°16'0 0.0
2018-Jul-17 13:30N 33°45' W 118°16'0 0.0
2018-Jul-17 03:23N 33°45' W 118°16'0 0.3
2018-Jul-17 03:00N 33°45' W 118°16'0 0.0
2018-Jul-17 02:30N 33°45' W 118°16'0 0.0
2018-Jul-17 02:00N 33°45' W 118°16'2 4.3
2018-Jul-17 01:31N 33°43' W 118°15'1223.4
2018-Jul-17 01:01N 33°31' W 118°17'1120.2
2018-Jul-17 00:29N 33°21' W 118°19'11 7.5
2018-Jul-16 23:03N 33°27' W 118°30'010.4
2018-Jul-16 23:00N 33°27' W 118°29'1224.6
2018-Jul-16 22:31N 33°37' W 118°20'816.1
2018-Jul-16 22:00N 33°44' W 118°17'1 1.2
2018-Jul-16 21:30N 33°45' W 118°16'0 0.0
2018-Jul-16 21:00N 33°45' W 118°16'4 7.7
2018-Jul-16 20:31N 33°41' W 118°15'1224.8
2018-Jul-16 20:00N 33°29' W 118°17'917.2
2018-Jul-16 19:30N 33°21' W 118°19'1 1.1
2018-Jul-16 19:00N 33°21' W 118°19'1223.8
2018-Jul-16 18:31N 33°33' W 118°17'1121.2
2018-Jul-16 18:00N 33°44' W 118°16'1 2.7
2018-Jul-16 17:30N 33°45' W 118°16'0 0.2
2018-Jul-16 17:01N 33°45' W 118°16'0 0.0
2018-Jul-16 16:31N 33°45' W 118°16'0 0.0
2018-Jul-16 16:00N 33°45' W 118°16'0 0.1
2018-Jul-16 15:31N 33°45' W 118°16'0 0.1
2018-Jul-16 15:00N 33°45' W 118°16'0 0.0
2018-Jul-16 14:31N 33°45' W 118°16'0 0.0
2018-Jul-16 14:00N 33°45' W 118°16'0 0.1
2018-Jul-16 13:30N 33°45' W 118°16'0 0.0
2018-Jul-16 04:37N 33°45' W 118°16'0 0.0
2018-Jul-16 04:30N 33°45' W 118°16'0 0.1
2018-Jul-16 04:00N 33°45' W 118°16'0 0.0
2018-Jul-16 03:30N 33°45' W 118°16'0 0.0
2018-Jul-16 03:00N 33°45' W 118°16'3 6.2
2018-Jul-16 02:31N 33°42' W 118°15'1224.2
2018-Jul-16 02:00N 33°33' W 118°24'8 7.5
2018-Jul-16 01:00N 33°27' W 118°29'1224.0
2018-Jul-16 00:31N 33°36' W 118°20'917.5
2018-Jul-16 00:00N 33°44' W 118°17'1 1.6
2018-Jul-15 23:30N 33°45' W 118°16'2 3.9
2018-Jul-15 23:01N 33°43' W 118°16'1122.6
2018-Jul-15 22:31N 33°32' W 118°17'1122.5
2018-Jul-15 22:00N 33°21' W 118°19'0 0.0
2018-Jul-15 21:30N 33°21' W 118°19'611.5
2018-Jul-15 21:00N 33°26' W 118°18'1224.1
2018-Jul-15 20:31N 33°38' W 118°16'713.4
2018-Jul-15 20:00N 33°45' W 118°16'0 0.0
2018-Jul-15 19:30N 33°45' W 118°16'0 0.0
2018-Jul-15 19:00N 33°45' W 118°16'0 0.1
2018-Jul-15 18:30N 33°45' W 118°16'1 2.4
2018-Jul-15 18:00N 33°44' W 118°16'918.2
2018-Jul-15 17:31N 33°35' W 118°21'11 8.8
2018-Jul-15 16:13N 33°27' W 118°30'520.4
2018-Jul-15 15:59N 33°31' W 118°26'1124.1
2018-Jul-15 15:31N 33°40' W 118°18'510.5
2018-Jul-15 15:00N 33°45' W 118°16'0 0.0
2018-Jul-15 14:30N 33°45' W 118°16'0 0.1
2018-Jul-15 14:00N 33°45' W 118°16'0 0.0
2018-Jul-14 20:15N 33°45' W 118°16'0 0.3
2018-Jul-14 20:01N 33°45' W 118°16'0 0.0
2018-Jul-14 19:30N 33°45' W 118°16'612.8
2018-Jul-14 19:01N 33°39' W 118°15'1325.5
2018-Jul-14 18:31N 33°26' W 118°18'611.1
2018-Jul-14 18:00N 33°21' W 118°19'611.8
2018-Jul-14 17:31N 33°26' W 118°18'1224.3
2018-Jul-14 17:01N 33°38' W 118°16'612.9
2018-Jul-14 16:30N 33°45' W 118°16'0 0.0
2018-Jul-14 16:01N 33°45' W 118°16'0 0.2
2018-Jul-14 15:30N 33°45' W 118°16'0 0.1
2018-Jul-14 15:00N 33°45' W 118°16'0 0.1
2018-Jul-14 14:30N 33°45' W 118°16'0 0.0
2018-Jul-14 02:35N 33°45' W 118°16'0 0.0
2018-Jul-14 02:31N 33°45' W 118°16'0 0.0
2018-Jul-14 02:01N 33°45' W 118°16'2 4.7
2018-Jul-14 01:30N 33°43' W 118°15'1223.5
2018-Jul-14 01:00N 33°31' W 118°18'1121.1
2018-Jul-14 00:30N 33°21' W 118°19'0 0.0
2018-Jul-14 00:00N 33°21' W 118°19'3 6.9
2018-Jul-13 23:30N 33°24' W 118°18'1325.6
2018-Jul-13 23:00N 33°37' W 118°16'816.5
2018-Jul-13 22:31N 33°45' W 118°16'0 0.2
2018-Jul-13 22:01N 33°45' W 118°16'0 0.0
2018-Jul-13 21:31N 33°45' W 118°16'0 0.1
2018-Jul-13 21:00N 33°45' W 118°16'3 6.7
2018-Jul-13 20:30N 33°42' W 118°15'1224.9
2018-Jul-13 20:00N 33°29' W 118°18'9 8.8
2018-Jul-13 19:00N 33°21' W 118°19'1122.9
2018-Jul-13 18:30N 33°32' W 118°17'1123.1
2018-Jul-13 18:00N 33°43' W 118°16'2 3.5
2018-Jul-13 17:30N 33°45' W 118°16'0 0.2
2018-Jul-13 17:01N 33°45' W 118°16'0 0.1
2018-Jul-13 16:30N 33°45' W 118°16'0 0.1
2018-Jul-13 16:00N 33°45' W 118°16'0 0.0
2018-Jul-13 15:31N 33°45' W 118°16'0 0.1
2018-Jul-13 15:01N 33°45' W 118°16'0 0.1
2018-Jul-13 14:00N 33°45' W 118°16'0 0.0
2018-Jul-13 13:30N 33°45' W 118°16'0 0.0
2018-Jul-13 13:00N 33°45' W 118°16'0 0.0
2018-Jul-13 02:50N 33°45' W 118°16'0 0.3
2018-Jul-13 02:30N 33°45' W 118°16'0 0.0
2018-Jul-13 02:00N 33°45' W 118°16'2 3.4
2018-Jul-13 01:31N 33°43' W 118°16'1223.0
2018-Jul-13 01:00N 33°32' W 118°17'1119.0
2018-Jul-13 00:25N 33°21' W 118°19'0 0.0
2018-Jul-13 00:00N 33°21' W 118°19'611.2
2018-Jul-12 23:31N 33°26' W 118°18'1325.6
2018-Jul-12 23:00N 33°39' W 118°16'612.3
2018-Jul-12 22:30N 33°45' W 118°16'0 0.0
2018-Jul-12 22:00N 33°45' W 118°16'0 0.0
2018-Jul-12 21:30N 33°45' W 118°16'0 0.0
2018-Jul-12 21:00N 33°45' W 118°16'3 5.3
2018-Jul-12 20:31N 33°43' W 118°15'1224.7
2018-Jul-12 20:01N 33°30' W 118°17'1019.6
2018-Jul-12 19:30N 33°21' W 118°19'0 0.5
2018-Jul-12 19:00N 33°21' W 118°19'1223.6
2018-Jul-12 18:31N 33°32' W 118°17'1121.8
2018-Jul-12 18:00N 33°43' W 118°16'2 3.0
2018-Jul-12 17:30N 33°45' W 118°16'0 0.1
2018-Jul-12 17:00N 33°45' W 118°16'0 0.1
2018-Jul-12 16:30N 33°45' W 118°16'0 0.0
2018-Jul-12 16:01N 33°45' W 118°16'0 0.0
2018-Jul-12 15:30N 33°45' W 118°16'0 0.0
2018-Jul-12 15:01N 33°45' W 118°16'0 0.0
2018-Jul-12 14:30N 33°45' W 118°16'0 0.0
2018-Jul-12 14:00N 33°45' W 118°16'0 0.1
2018-Jul-12 13:30N 33°45' W 118°16'0 0.0
2018-Jul-12 02:44N 33°45' W 118°16'0 0.3
2018-Jul-12 02:30N 33°45' W 118°16'0 0.0
2018-Jul-12 02:00N 33°45' W 118°16'2 3.1
2018-Jul-12 01:31N 33°43' W 118°16'1122.4
2018-Jul-12 01:00N 33°32' W 118°18'1223.1
2018-Jul-12 00:30N 33°21' W 118°19'0 0.1
2018-Jul-12 00:00N 33°21' W 118°19'4 8.8
2018-Jul-11 23:31N 33°25' W 118°18'1325.3
2018-Jul-11 23:00N 33°37' W 118°16'815.1
2018-Jul-11 22:30N 33°45' W 118°16'0 0.1
2018-Jul-11 22:00N 33°45' W 118°16'0 0.0
2018-Jul-11 21:30N 33°45' W 118°16'0 0.2
2018-Jul-11 21:01N 33°45' W 118°16'2 4.3
2018-Jul-11 20:30N 33°43' W 118°15'1325.1
2018-Jul-11 20:01N 33°30' W 118°17'1019.6
2018-Jul-11 19:30N 33°21' W 118°19'1 2.9
2018-Jul-11 19:01N 33°22' W 118°19'1224.3
2018-Jul-11 18:30N 33°34' W 118°17'1019.3
2018-Jul-11 18:00N 33°44' W 118°16'1 2.4
2018-Jul-11 17:30N 33°45' W 118°16'0 0.2
2018-Jul-11 17:00N 33°45' W 118°16'0 0.0
2018-Jul-11 16:30N 33°45' W 118°16'0 0.0
2018-Jul-11 16:00N 33°45' W 118°16'0 0.0
2018-Jul-11 15:30N 33°45' W 118°16'0 0.0
2018-Jul-11 15:00N 33°45' W 118°16'0 0.1
2018-Jul-11 14:30N 33°45' W 118°16'0 0.1
2018-Jul-11 14:00N 33°45' W 118°16'0 0.0
2018-Jul-11 13:30N 33°45' W 118°16'0 0.0
2018-Jul-11 13:00N 33°45' W 118°16'0 0.1
2018-Jul-11 12:30N 33°45' W 118°16'0 0.1
2018-Jul-11 12:00N 33°45' W 118°16'0 0.0
2018-Jul-10 02:59N 33°45' W 118°16'0 0.2
2018-Jul-10 02:30N 33°45' W 118°16'0 0.0
2018-Jul-10 02:00N 33°45' W 118°16'2 4.1
2018-Jul-10 01:30N 33°43' W 118°16'1223.8
2018-Jul-10 01:01N 33°31' W 118°17'1120.8
2018-Jul-10 00:30N 33°21' W 118°19'1 2.8
2018-Jul-10 00:01N 33°22' W 118°20'1015.5
2018-Jul-09 23:23N 33°27' W 118°30'1 3.3
2018-Jul-09 23:00N 33°28' W 118°29'1224.9
2018-Jul-09 22:31N 33°37' W 118°20'715.0
2018-Jul-09 22:01N 33°44' W 118°17'1 1.2
2018-Jul-09 21:31N 33°45' W 118°16'0 0.0
2018-Jul-09 21:00N 33°45' W 118°16'3 6.1
2018-Jul-09 20:30N 33°42' W 118°15'1224.7
2018-Jul-09 20:01N 33°30' W 118°17'1019.2
2018-Jul-09 19:30N 33°21' W 118°19'1 1.2
2018-Jul-09 19:00N 33°21' W 118°19'1223.1
2018-Jul-09 18:30N 33°33' W 118°17'1121.3
2018-Jul-09 18:00N 33°43' W 118°16'2 3.3
2018-Jul-09 17:30N 33°45' W 118°16'0 0.0
2018-Jul-09 17:00N 33°45' W 118°16'0 0.1
2018-Jul-09 16:30N 33°45' W 118°16'0 0.1
2018-Jul-09 16:00N 33°45' W 118°16'0 0.0
2018-Jul-09 15:30N 33°45' W 118°16'0 0.1
2018-Jul-09 15:00N 33°45' W 118°16'0 0.1
2018-Jul-09 14:30N 33°45' W 118°16'0 0.0
2018-Jul-09 14:00N 33°45' W 118°16'0 0.0
2018-Jul-09 13:30N 33°45' W 118°16'  
Track history (hours):
 
Tides and Currents Weather Stations Pressure Air Temp Water Temp Dewpoint Dewpoint Depression Visibility Wind Speed Wind Dir Waves Ship Positions

Avalon Express

Owner: RGWT INC, San Pedro, CA. More information available from US FCC via Universal Licensing System and Coast Guard Vessel Documentation Center.

Last reported at 2018-Jul-19 13:00 UTC. Time now 2018-Jul-19 13:08 UTC.
Position N 33°45' W 118°16'.

Length 37 m; draft 3 m.

Type: High speed craft. MMSI: 367192940.

Date/timePositionNaut miles runAvg speedWind from/ knotsBaromVisibWave heightAir tempDewpointWater temp
2018-Jul-19 13:00N 33°45' W 118°16'0 0.0
2018-Jul-19 12:30N 33°45' W 118°16'0 0.0
2018-Jul-19 02:59N 33°45' W 118°16'0 0.2
2018-Jul-19 02:30N 33°45' W 118°16'0 0.0
2018-Jul-19 02:00N 33°45' W 118°16'2 3.2
2018-Jul-19 01:31N 33°43' W 118°16'1122.3
2018-Jul-19 01:01N 33°32' W 118°16'1223.5
2018-Jul-19 00:30N 33°21' W 118°19'1 1.6
2018-Jul-19 00:01N 33°22' W 118°19'1016.6
2018-Jul-18 23:24N 33°27' W 118°30'1 2.3
2018-Jul-18 23:01N 33°27' W 118°29'1324.7
2018-Jul-18 22:30N 33°37' W 118°20'815.2
2018-Jul-18 22:00N 33°44' W 118°17'1 1.3
2018-Jul-18 21:30N 33°45' W 118°16'0 0.0
2018-Jul-18 21:00N 33°45' W 118°16'3 6.6
2018-Jul-18 20:31N 33°42' W 118°15'1325.1
2018-Jul-18 20:00N 33°30' W 118°17'918.1
2018-Jul-18 19:30N 33°21' W 118°19'0 0.2
2018-Jul-18 19:00N 33°21' W 118°19'1122.4
2018-Jul-18 18:30N 33°32' W 118°17'1122.8
2018-Jul-18 18:00N 33°43' W 118°16'2 3.5
2018-Jul-18 17:30N 33°45' W 118°16'0 0.0
2018-Jul-18 17:00N 33°45' W 118°16'0 0.2
2018-Jul-18 16:30N 33°45' W 118°16'0 0.0
2018-Jul-18 16:00N 33°45' W 118°16'0 0.0
2018-Jul-18 15:30N 33°45' W 118°16'0 0.0
2018-Jul-18 15:00N 33°45' W 118°16'0 0.0
2018-Jul-18 14:30N 33°45' W 118°16'0 0.0
2018-Jul-18 13:30N 33°45' W 118°16'0 0.2
2018-Jul-18 13:00N 33°45' W 118°16'0 0.2
2018-Jul-18 12:30N 33°45' W 118°16'0 0.1
2018-Jul-18 12:00N 33°45' W 118°16'0 0.0
2018-Jul-18 02:52N 33°45' W 118°16'0 0.2
2018-Jul-18 02:30N 33°45' W 118°16'0 0.0
2018-Jul-18 02:00N 33°45' W 118°16'2 4.0
2018-Jul-18 01:30N 33°43' W 118°16'1121.8
2018-Jul-18 01:01N 33°32' W 118°17'1222.3
2018-Jul-18 00:29N 33°21' W 118°19'2 4.6
2018-Jul-18 00:00N 33°23' W 118°20'9 9.9
2018-Jul-17 23:06N 33°27' W 118°30'318.0
2018-Jul-17 22:57N 33°29' W 118°27'1125.2
2018-Jul-17 22:30N 33°37' W 118°19'714.6
2018-Jul-17 22:01N 33°44' W 118°17'1 1.2
2018-Jul-17 21:31N 33°45' W 118°16'0 0.0
2018-Jul-17 21:01N 33°45' W 118°16'2 5.0
2018-Jul-17 20:30N 33°43' W 118°15'1325.3
2018-Jul-17 20:00N 33°30' W 118°17'9 9.4
2018-Jul-17 19:02N 33°21' W 118°19'0 9.5
2018-Jul-17 19:00N 33°21' W 118°19'1224.4
2018-Jul-17 18:30N 33°33' W 118°17'1020.7
2018-Jul-17 18:01N 33°43' W 118°16'1 2.8
2018-Jul-17 17:30N 33°45' W 118°16'0 0.2
2018-Jul-17 17:01N 33°45' W 118°16'0 0.0
2018-Jul-17 16:31N 33°45' W 118°16'0 0.0
2018-Jul-17 16:00N 33°45' W 118°16'0 0.0
2018-Jul-17 15:30N 33°45' W 118°16'0 0.0
2018-Jul-17 15:00N 33°45' W 118°16'0 0.1
2018-Jul-17 14:31N 33°45' W 118°16'0 0.1
2018-Jul-17 14:00N 33°45' W 118°16'0 0.0
2018-Jul-17 13:30N 33°45' W 118°16'0 0.0
2018-Jul-17 03:23N 33°45' W 118°16'0 0.3
2018-Jul-17 03:00N 33°45' W 118°16'0 0.0
2018-Jul-17 02:30N 33°45' W 118°16'0 0.0
2018-Jul-17 02:00N 33°45' W 118°16'2 4.3
2018-Jul-17 01:31N 33°43' W 118°15'1223.4
2018-Jul-17 01:01N 33°31' W 118°17'1120.2
2018-Jul-17 00:29N 33°21' W 118°19'11 7.5
2018-Jul-16 23:03N 33°27' W 118°30'010.4
2018-Jul-16 23:00N 33°27' W 118°29'1224.6
2018-Jul-16 22:31N 33°37' W 118°20'816.1
2018-Jul-16 22:00N 33°44' W 118°17'1 1.2
2018-Jul-16 21:30N 33°45' W 118°16'0 0.0
2018-Jul-16 21:00N 33°45' W 118°16'4 7.7
2018-Jul-16 20:31N 33°41' W 118°15'1224.8
2018-Jul-16 20:00N 33°29' W 118°17'917.2
2018-Jul-16 19:30N 33°21' W 118°19'1 1.1
2018-Jul-16 19:00N 33°21' W 118°19'1223.8
2018-Jul-16 18:31N 33°33' W 118°17'1121.2
2018-Jul-16 18:00N 33°44' W 118°16'1 2.7
2018-Jul-16 17:30N 33°45' W 118°16'0 0.2
2018-Jul-16 17:01N 33°45' W 118°16'0 0.0
2018-Jul-16 16:31N 33°45' W 118°16'0 0.0
2018-Jul-16 16:00N 33°45' W 118°16'0 0.1
2018-Jul-16 15:31N 33°45' W 118°16'0 0.1
2018-Jul-16 15:00N 33°45' W 118°16'0 0.0
2018-Jul-16 14:31N 33°45' W 118°16'0 0.0
2018-Jul-16 14:00N 33°45' W 118°16'0 0.1
2018-Jul-16 13:30N 33°45' W 118°16'0 0.0
2018-Jul-16 04:37N 33°45' W 118°16'0 0.0
2018-Jul-16 04:30N 33°45' W 118°16'0 0.1
2018-Jul-16 04:00N 33°45' W 118°16'0 0.0
2018-Jul-16 03:30N 33°45' W 118°16'0 0.0
2018-Jul-16 03:00N 33°45' W 118°16'3 6.2
2018-Jul-16 02:31N 33°42' W 118°15'1224.2
2018-Jul-16 02:00N 33°33' W 118°24'8 7.5
2018-Jul-16 01:00N 33°27' W 118°29'1224.0
2018-Jul-16 00:31N 33°36' W 118°20'917.5
2018-Jul-16 00:00N 33°44' W 118°17'1 1.6
2018-Jul-15 23:30N 33°45' W 118°16'2 3.9
2018-Jul-15 23:01N 33°43' W 118°16'1122.6
2018-Jul-15 22:31N 33°32' W 118°17'1122.5
2018-Jul-15 22:00N 33°21' W 118°19'0 0.0
2018-Jul-15 21:30N 33°21' W 118°19'611.5
2018-Jul-15 21:00N 33°26' W 118°18'1224.1
2018-Jul-15 20:31N 33°38' W 118°16'713.4
2018-Jul-15 20:00N 33°45' W 118°16'0 0.0
2018-Jul-15 19:30N 33°45' W 118°16'0 0.0
2018-Jul-15 19:00N 33°45' W 118°16'0 0.1
2018-Jul-15 18:30N 33°45' W 118°16'1 2.4
2018-Jul-15 18:00N 33°44' W 118°16'918.2
2018-Jul-15 17:31N 33°35' W 118°21'11 8.8
2018-Jul-15 16:13N 33°27' W 118°30'520.4
2018-Jul-15 15:59N 33°31' W 118°26'1124.1
2018-Jul-15 15:31N 33°40' W 118°18'510.5
2018-Jul-15 15:00N 33°45' W 118°16'0 0.0
2018-Jul-15 14:30N 33°45' W 118°16'0 0.1
2018-Jul-15 14:00N 33°45' W 118°16'0 0.0
2018-Jul-14 20:15N 33°45' W 118°16'0 0.3
2018-Jul-14 20:01N 33°45' W 118°16'0 0.0
2018-Jul-14 19:30N 33°45' W 118°16'612.8
2018-Jul-14 19:01N 33°39' W 118°15'1325.5
2018-Jul-14 18:31N 33°26' W 118°18'611.1
2018-Jul-14 18:00N 33°21' W 118°19'611.8
2018-Jul-14 17:31N 33°26' W 118°18'1224.3
2018-Jul-14 17:01N 33°38' W 118°16'612.9
2018-Jul-14 16:30N 33°45' W 118°16'0 0.0
2018-Jul-14 16:01N 33°45' W 118°16'0 0.2
2018-Jul-14 15:30N 33°45' W 118°16'0 0.1
2018-Jul-14 15:00N 33°45' W 118°16'0 0.1
2018-Jul-14 14:30N 33°45' W 118°16'0 0.0
2018-Jul-14 02:35N 33°45' W 118°16'0 0.0
2018-Jul-14 02:31N 33°45' W 118°16'0 0.0
2018-Jul-14 02:01N 33°45' W 118°16'2 4.7
2018-Jul-14 01:30N 33°43' W 118°15'1223.5
2018-Jul-14 01:00N 33°31' W 118°18'1121.1
2018-Jul-14 00:30N 33°21' W 118°19'0 0.0
2018-Jul-14 00:00N 33°21' W 118°19'3 6.9
2018-Jul-13 23:30N 33°24' W 118°18'1325.6
2018-Jul-13 23:00N 33°37' W 118°16'816.5
2018-Jul-13 22:31N 33°45' W 118°16'0 0.2
2018-Jul-13 22:01N 33°45' W 118°16'0 0.0
2018-Jul-13 21:31N 33°45' W 118°16'0 0.1
2018-Jul-13 21:00N 33°45' W 118°16'3 6.7
2018-Jul-13 20:30N 33°42' W 118°15'1224.9
2018-Jul-13 20:00N 33°29' W 118°18'9 8.8
2018-Jul-13 19:00N 33°21' W 118°19'1122.9
2018-Jul-13 18:30N 33°32' W 118°17'1123.1
2018-Jul-13 18:00N 33°43' W 118°16'2 3.5
2018-Jul-13 17:30N 33°45' W 118°16'0 0.2
2018-Jul-13 17:01N 33°45' W 118°16'0 0.1
2018-Jul-13 16:30N 33°45' W 118°16'0 0.1
2018-Jul-13 16:00N 33°45' W 118°16'0 0.0
2018-Jul-13 15:31N 33°45' W 118°16'0 0.1
2018-Jul-13 15:01N 33°45' W 118°16'0 0.1
2018-Jul-13 14:00N 33°45' W 118°16'0 0.0
2018-Jul-13 13:30N 33°45' W 118°16'0 0.0
2018-Jul-13 13:00N 33°45' W 118°16'0 0.0
2018-Jul-13 02:50N 33°45' W 118°16'0 0.3
2018-Jul-13 02:30N 33°45' W 118°16'0 0.0
2018-Jul-13 02:00N 33°45' W 118°16'2 3.4
2018-Jul-13 01:31N 33°43' W 118°16'1223.0
2018-Jul-13 01:00N 33°32' W 118°17'1119.0
2018-Jul-13 00:25N 33°21' W 118°19'0 0.0
2018-Jul-13 00:00N 33°21' W 118°19'611.2
2018-Jul-12 23:31N 33°26' W 118°18'1325.6
2018-Jul-12 23:00N 33°39' W 118°16'612.3
2018-Jul-12 22:30N 33°45' W 118°16'0 0.0
2018-Jul-12 22:00N 33°45' W 118°16'0 0.0
2018-Jul-12 21:30N 33°45' W 118°16'0 0.0
2018-Jul-12 21:00N 33°45' W 118°16'3 5.3
2018-Jul-12 20:31N 33°43' W 118°15'1224.7
2018-Jul-12 20:01N 33°30' W 118°17'1019.6
2018-Jul-12 19:30N 33°21' W 118°19'0 0.5
2018-Jul-12 19:00N 33°21' W 118°19'1223.6
2018-Jul-12 18:31N 33°32' W 118°17'1121.8
2018-Jul-12 18:00N 33°43' W 118°16'2 3.0
2018-Jul-12 17:30N 33°45' W 118°16'0 0.1
2018-Jul-12 17:00N 33°45' W 118°16'0 0.1
2018-Jul-12 16:30N 33°45' W 118°16'0 0.0
2018-Jul-12 16:01N 33°45' W 118°16'0 0.0
2018-Jul-12 15:30N 33°45' W 118°16'0 0.0
2018-Jul-12 15:01N 33°45' W 118°16'0 0.0
2018-Jul-12 14:30N 33°45' W 118°16'0 0.0
2018-Jul-12 14:00N 33°45' W 118°16'0 0.1
2018-Jul-12 13:30N 33°45' W 118°16'0 0.0
2018-Jul-12 02:44N 33°45' W 118°16'0 0.3
2018-Jul-12 02:30N 33°45' W 118°16'0 0.0
2018-Jul-12 02:00N 33°45' W 118°16'2 3.1
2018-Jul-12 01:31N 33°43' W 118°16'1122.4
2018-Jul-12 01:00N 33°32' W 118°18'1223.1
2018-Jul-12 00:30N 33°21' W 118°19'0 0.1
2018-Jul-12 00:00N 33°21' W 118°19'4 8.8
2018-Jul-11 23:31N 33°25' W 118°18'1325.3
2018-Jul-11 23:00N 33°37' W 118°16'815.1
2018-Jul-11 22:30N 33°45' W 118°16'0 0.1
2018-Jul-11 22:00N 33°45' W 118°16'0 0.0
2018-Jul-11 21:30N 33°45' W 118°16'0 0.2
2018-Jul-11 21:01N 33°45' W 118°16'2 4.3
2018-Jul-11 20:30N 33°43' W 118°15'1325.1
2018-Jul-11 20:01N 33°30' W 118°17'1019.6
2018-Jul-11 19:30N 33°21' W 118°19'1 2.9
2018-Jul-11 19:01N 33°22' W 118°19'1224.3
2018-Jul-11 18:30N 33°34' W 118°17'1019.3
2018-Jul-11 18:00N 33°44' W 118°16'1 2.4
2018-Jul-11 17:30N 33°45' W 118°16'0 0.2
2018-Jul-11 17:00N 33°45' W 118°16'0 0.0
2018-Jul-11 16:30N 33°45' W 118°16'0 0.0
2018-Jul-11 16:00N 33°45' W 118°16'0 0.0
2018-Jul-11 15:30N 33°45' W 118°16'0 0.0
2018-Jul-11 15:00N 33°45' W 118°16'0 0.1
2018-Jul-11 14:30N 33°45' W 118°16'0 0.1
2018-Jul-11 14:00N 33°45' W 118°16'0 0.0
2018-Jul-11 13:30N 33°45' W 118°16'0 0.0
2018-Jul-11 13:00N 33°45' W 118°16'0 0.1
2018-Jul-11 12:30N 33°45' W 118°16'0 0.1
2018-Jul-11 12:00N 33°45' W 118°16'0 0.0
2018-Jul-10 02:59N 33°45' W 118°16'0 0.2
2018-Jul-10 02:30N 33°45' W 118°16'0 0.0
2018-Jul-10 02:00N 33°45' W 118°16'2 4.1
2018-Jul-10 01:30N 33°43' W 118°16'1223.8
2018-Jul-10 01:01N 33°31' W 118°17'1120.8
2018-Jul-10 00:30N 33°21' W 118°19'1 2.8
2018-Jul-10 00:01N 33°22' W 118°20'1015.5
2018-Jul-09 23:23N 33°27' W 118°30'1 3.3
2018-Jul-09 23:00N 33°28' W 118°29'1224.9
2018-Jul-09 22:31N 33°37' W 118°20'715.0
2018-Jul-09 22:01N 33°44' W 118°17'1 1.2
2018-Jul-09 21:31N 33°45' W 118°16'0 0.0
2018-Jul-09 21:00N 33°45' W 118°16'3 6.1
2018-Jul-09 20:30N 33°42' W 118°15'1224.7
2018-Jul-09 20:01N 33°30' W 118°17'1019.2
2018-Jul-09 19:30N 33°21' W 118°19'1 1.2
2018-Jul-09 19:00N 33°21' W 118°19'1223.1
2018-Jul-09 18:30N 33°33' W 118°17'1121.3
2018-Jul-09 18:00N 33°43' W 118°16'2 3.3
2018-Jul-09 17:30N 33°45' W 118°16'0 0.0
2018-Jul-09 17:00N 33°45' W 118°16'0 0.1
2018-Jul-09 16:30N 33°45' W 118°16'0 0.1
2018-Jul-09 16:00N 33°45' W 118°16'0 0.0
2018-Jul-09 15:30N 33°45' W 118°16'0 0.1
2018-Jul-09 15:00N 33°45' W 118°16'0 0.1
2018-Jul-09 14:30N 33°45' W 118°16'0 0.0
2018-Jul-09 14:00N 33°45' W 118°16'0 0.0
2018-Jul-09 13:30N 33°45' W 118°16'  

Dump ship's entire track history